Latest Weather Observations for Ferny Creek

IDV60801

Issued at 12:31 pm EST Tuesday 21 April 2015 (issued every 30 minutes, with the page automatically refreshed every 10 minutes)

About weather observations | Map of weather stations | Latest weather observations for VIC | Other Formats
Station Details ID: 086266 Name: FERNY CREEK Lat: -37.87 Lon: 145.35 Height: 512.9 m
Data from the previous 72 hours. | See also: Recent months at Ferny Creek
Date/Time
EST
Temp
°C
App
Temp
°C
Dew
Point
Rel
Hum
%
Delta-T
°C
Wind Press
QNH
hPa
Press
MSL
hPa
Rain
since 9 am
mm
Dir
 
Spd
km/h
Gust
km/h
Spd
kts
Gust
kts
21/12:30pm 11.2 9.0 6.1 71 2.4 ESE 7 13 4 7 1030.3 1029.9 0.0
21/12:00pm 12.9 10.8 8.2 73 2.4 ESE 9 20 5 11 1030.7 1030.4 0.0
21/11:30am 11.3 8.8 6.4 72 2.4 SE 9 22 5 12 1031.2 1030.9 0.0
21/11:00am 10.5 7.6 6.6 77 1.9 ESE 11 26 6 14 1031.5 1031.1 0.0
21/10:30am 11.7 9.2 8.0 78 1.9 ESE 11 24 6 13 1031.4 1031.0 0.0
21/10:00am 10.7 8.0 7.2 79 1.7 ESE 11 20 6 11 1031.9 1031.5 0.0
21/09:30am 10.0 6.9 7.1 82 1.4 ESE 13 26 7 14 1032.0 1031.6 0.0
21/09:00am 10.2 7.1 7.4 83 1.4 ESE 13 24 7 13 1032.1 1031.7 0.0
21/08:30am 9.0 5.7 6.3 83 1.3 ESE 13 30 7 16 1032.4 1032.1 0.0
21/08:00am 8.7 6.1 6.2 84 1.2 ESE 9 26 5 14 1032.3 1032.0 0.0
21/07:30am 8.2 5.6 6.0 86 1.0 ESE 9 19 5 10 1032.3 1032.0 0.0
21/07:00am 8.1 5.5 5.9 86 1.0 ESE 9 26 5 14 1032.3 1032.0 0.0
21/06:30am 7.9 5.2 5.7 86 1.0 ESE 9 17 5 9 1032.1 1031.7 0.0
21/06:00am 7.5 4.7 5.1 85 1.1 ESE 9 15 5 8 1032.1 1031.7 0.0
21/05:30am 7.4 4.9 4.5 82 1.3 ESE 7 13 4 7 1031.9 1031.5 0.0
21/05:00am 6.9 3.9 4.0 82 1.3 ESE 9 19 5 10 1031.6 1031.2 0.0
21/04:30am 6.9 3.9 3.9 81 1.3 ESE 9 17 5 9 1031.5 1031.1 0.0
21/04:00am 6.8 3.7 3.4 79 1.5 ESE 9 17 5 9 1031.5 1031.1 0.0
21/03:30am 6.9 3.8 3.5 79 1.5 ESE 9 17 5 9 1031.9 1031.5 0.0
21/03:00am 6.7 3.5 2.8 76 1.7 ESE 9 24 5 13 1032.2 1031.9 0.0
21/02:30am 6.7 3.5 3.0 77 1.6 ESE 9 19 5 10 1032.6 1032.3 0.0
21/02:00am 6.7 3.1 3.0 77 1.6 ESE 11 22 6 12 1032.9 1032.6 0.0
21/01:30am 6.2 3.3 2.8 79 1.5 ESE 7 15 4 8 1033.2 1032.9 0.0
21/01:00am 6.3 3.5 2.9 79 1.4 ESE 7 13 4 7 1033.5 1033.1 0.0
21/12:30am 6.5 3.6 2.8 77 1.6 ESE 7 20 4 11 1033.5 1033.1 0.0
21/12:00am 6.5 3.6 2.8 77 1.6 ESE 7 17 4 9 1033.7 1033.3 0.0
 
Date/Time
EST
Temp
°C
App
Temp
°C
Dew
Point
Rel
Hum
%
Delta-T
°C
Wind Press
QNH
hPa
Press
MSL
hPa
Rain
since 9 am
mm
Dir
 
Spd
km/h
Gust
km/h
Spd
kts
Gust
kts
20/11:30pm 6.4 3.6 3.0 79 1.5 ESE 7 17 4 9 1033.9 1033.6 0.0
20/11:00pm 6.6 3.4 3.0 78 1.5 ESE 9 17 5 9 1034.2 1033.9 0.0
20/10:30pm 6.3 3.5 3.1 80 1.4 ESE 7 13 4 7 1034.3 1034.0 0.0
20/10:00pm 6.4 3.2 3.2 80 1.4 ESE 9 22 5 12 1034.4 1034.1 0.0
20/09:30pm 6.5 3.3 2.9 78 1.5 ESE 9 19 5 10 1034.4 1034.1 0.0
20/09:00pm 6.5 3.3 3.1 79 1.5 ESE 9 20 5 11 1034.4 1034.1 0.0
20/08:30pm 6.8 3.2 3.2 78 1.6 ESE 11 24 6 13 1034.4 1034.1 0.0
20/08:00pm 6.7 3.5 3.3 79 1.5 ESE 9 20 5 11 1034.3 1034.0 0.0
20/07:30pm 7.1 3.9 3.3 77 1.7 SE 9 24 5 13 1034.2 1033.9 0.0
20/07:00pm 7.3 3.7 3.2 75 1.8 SE 11 20 6 11 1034.1 1033.8 0.0
20/06:30pm 7.4 4.1 2.5 71 2.1 ESE 9 19 5 10 1034.1 1033.8 0.0
20/06:00pm 7.7 4.4 2.6 70 2.2 SE 9 20 5 11 1033.9 1033.6 0.0
20/05:30pm 8.1 5.2 2.8 69 2.3 SE 7 22 4 12 1033.8 1033.4 0.0
20/05:00pm 8.6 5.7 2.8 67 2.5 SE 7 15 4 8 1033.6 1033.2 0.0
20/04:30pm 9.3 6.5 3.3 66 2.7 ESE 7 13 4 7 1033.5 1033.1 0.0
20/04:00pm 10.1 7.4 3.6 64 2.9 SE 7 22 4 12 1033.6 1033.2 0.0
20/03:30pm 10.2 7.6 4.1 66 2.8 ESE 7 20 4 11 1033.7 1033.3 0.0
20/03:00pm 10.2 6.9 2.6 59 3.3 ESE 9 20 5 11 1033.7 1033.3 0.0
20/02:30pm 11.8 8.7 3.6 57 3.8 ESE 9 19 5 10 1033.6 1033.2 0.0
20/02:00pm 11.5 7.0 2.0 52 4.1 E 15 28 8 15 1033.7 1033.3 0.0
20/01:30pm 11.1 7.8 2.7 56 3.7 ESE 9 22 5 12 1033.9 1033.6 0.0
20/01:00pm 10.6 7.3 2.7 58 3.5 ESE 9 22 5 12 1034.0 1033.7 0.0
20/12:30pm 10.3 7.8 4.5 67 2.7 SE 7 19 4 10 1034.5 1034.2 0.0
20/12:00pm 10.7 7.9 5.0 68 2.6 SE 9 17 5 9 1035.0 1034.7 0.0
20/11:30am 9.8 7.2 4.4 69 2.5 SE 7 17 4 9 1035.6 1035.3 0.0
20/11:00am 10.4 8.1 5.6 72 2.2 ESE 7 15 4 8 1035.8 1035.5 0.0
20/10:30am 9.3 5.9 4.1 70 2.4 ESE 11 24 6 13 1035.9 1035.6 0.0
20/10:00am 10.0 7.3 5.4 73 2.1 ESE 9 20 5 11 1035.8 1035.5 0.0
20/09:30am 9.3 6.3 4.1 70 2.4 ESE 9 17 5 9 1035.9 1035.6 0.0
20/09:00am 9.1 6.2 4.5 73 2.1 ESE 9 17 5 9 1035.9 1035.6 8.2
20/08:30am 8.0 5.0 4.2 77 1.7 ESE 9 20 5 11 1035.8 1035.5 8.2
20/08:00am 7.0 4.0 4.1 82 1.3 ESE 9 20 5 11 1035.6 1035.3 8.2
20/07:30am 6.0 3.3 3.8 86 1.0 SE 7 15 4 8 1035.3 1035.0 8.2
20/07:00am 5.9 3.3 4.1 88 0.8 ESE 7 13 4 7 1035.1 1034.8 8.2
20/06:30am 6.1 3.4 3.9 86 1.0 ESE 7 15 4 8 1034.9 1034.6 7.8
20/06:00am 6.1 3.3 3.4 83 1.2 ESE 7 19 4 10 1034.6 1034.3 7.8
20/05:30am 6.0 2.8 2.8 80 1.4 ESE 9 17 5 9 1034.4 1034.1 7.8
20/05:00am 6.0 3.1 2.5 78 1.5 ESE 7 19 4 10 1034.1 1033.8 7.8
20/04:30am 5.7 2.4 2.4 79 1.4 ESE 9 19 5 10 1033.8 1033.4 7.8
20/04:00am 5.3 2.5 2.0 79 1.4 ESE 6 13 3 7 1033.7 1033.3 7.8
20/03:30am 5.7 2.7 1.8 76 1.6 ESE 7 19 4 10 1033.5 1033.1 7.8
20/03:00am 5.5 2.4 1.6 76 1.6 ESE 7 15 4 8 1033.6 1033.2 7.8
20/02:30am 5.6 2.5 1.5 75 1.7 ESE 7 13 4 7 1033.7 1033.3 7.8
20/02:00am 5.7 2.6 1.6 75 1.7 ESE 7 15 4 8 1033.7 1033.3 7.8
20/01:30am 5.5 2.4 1.6 76 1.6 ESE 7 17 4 9 1033.6 1033.2 7.8
20/01:00am 5.5 2.4 1.6 76 1.6 ESE 7 15 4 8 1033.8 1033.4 7.8
20/12:30am 5.7 2.6 1.4 74 1.8 ESE 7 19 4 10 1033.8 1033.4 7.8
20/12:00am 5.1 2.6 1.8 79 1.3 ESE 4 11 2 6 1033.8 1033.4 7.8
 
Date/Time
EST
Temp
°C
App
Temp
°C
Dew
Point
Rel
Hum
%
Delta-T
°C
Wind Press
QNH
hPa
Press
MSL
hPa
Rain
since 9 am
mm
Dir
 
Spd
km/h
Gust
km/h
Spd
kts
Gust
kts
19/11:30pm 5.2 2.3 1.5 77 1.5 ESE 6 11 3 6 1034.0 1033.7 7.8
19/11:00pm 5.5 2.6 1.4 75 1.7 ESE 6 13 3 7 1033.9 1033.6 7.8
19/10:30pm 5.8 2.9 1.3 73 1.8 ESE 6 13 3 7 1033.7 1033.3 7.8
19/10:00pm 5.6 2.7 1.2 73 1.8 ESE 6 13 3 7 1033.7 1033.3 7.8
19/09:30pm 5.5 2.7 2.0 78 1.5 ESE 6 13 3 7 1033.4 1033.0 7.8
19/09:00pm 5.7 2.9 2.0 77 1.5 ESE 6 13 3 7 1033.2 1032.9 7.8
19/08:30pm 5.7 2.9 2.2 78 1.5 ESE 6 17 3 9 1032.7 1032.4 7.8
19/08:00pm 5.5 2.5 2.3 80 1.3 ESE 7 17 4 9 1032.4 1032.1 7.8
19/07:30pm 5.9 3.2 2.7 80 1.4 E 6 11 3 6 1032.2 1031.9 7.8
19/07:00pm 6.2 3.2 2.1 75 1.7 ESE 7 17 4 9 1031.7 1031.3 7.8
19/06:30pm 5.8 3.4 2.4 79 1.4 ESE 4 7 2 4 1031.2 1030.9 7.8
19/06:00pm 6.3 3.3 2.2 75 1.7 SE 7 19 4 10 1030.7 1030.4 7.8
19/05:30pm 6.9 4.0 2.4 73 1.9 SE 7 17 4 9 1030.4 1030.0 7.8
19/05:00pm 7.7 5.2 3.9 77 1.7 ESE 6 13 3 7 1029.9 1029.5 7.8
19/04:30pm 7.7 5.0 3.9 77 1.7 SE 7 15 4 8 1029.6 1029.2 7.8
19/04:00pm 8.3 5.8 3.9 74 2.0 SSE 6 15 3 8 1029.1 1028.8 7.6
19/03:30pm 7.5 5.1 4.5 81 1.4 SSE 6 17 3 9 1029.0 1028.7 7.6
19/03:00pm 8.2 5.7 4.8 79 1.5 SSE 7 13 4 7 1028.7 1028.3 7.4
19/02:30pm 7.7 5.4 5.8 88 0.9 SSE 7 20 4 11 1028.4 1028.0 7.4
19/02:00pm 6.5 4.2 5.8 95 0.3 SSE 7 19 4 10 1028.1 1027.7 7.4
19/01:30pm 5.7 2.6 3.7 87 0.9 WSW 9 28 5 15 1027.8 1027.4 7.2
19/01:00pm 7.3 5.1 5.4 88 0.9 S 6 9 3 5 1027.4 1027.0 5.4
19/12:30pm 7.2 5.5 5.7 90 0.7 S 4 13 2 7 1027.4 1027.0 4.2
19/12:00pm 6.3 4.4 4.8 90 0.7 NE 4 7 2 4 1027.5 1027.1 4.0
19/11:30am 7.4 5.2 6.0 91 0.7 ESE 7 13 4 7 1027.3 1026.9 2.6
19/11:00am 6.0 3.6 5.4 96 0.3 ESE 7 15 4 8 1026.9 1026.5 2.6
19/10:30am 5.4 3.0 4.5 94 0.4 ESE 6 11 3 6 1026.6 1026.2 2.6
19/10:00am 5.7 2.6 3.7 87 0.9 SSE 9 20 5 11 1026.2 1025.8 2.0
19/09:30am 8.3 6.7 6.3 87 0.9 ESE 4 11 2 6 1025.3 1024.8 0.0
19/09:00am 5.8 3.5 4.8 93 0.4 ENE 6 15 3 8 1024.9 1024.5 25.2
19/08:30am 5.6 2.7 4.6 93 0.4 SW 9 22 5 12 1024.5 1024.1 24.8
19/08:00am 6.2 4.0 5.3 94 0.4 SE 6 24 3 13 1023.9 1023.5 24.0
19/07:30am 5.8 3.9 5.1 95 0.3 ESE 4 7 2 4 1023.1 1022.6 23.6
19/07:00am 5.6 3.7 4.7 94 0.4 WSW 4 7 2 4 1022.2 1021.8 23.0
19/06:30am 5.6 3.7 4.7 94 0.4 S 4 9 2 5 1021.7 1021.2 23.0
19/06:00am 5.7 3.4 4.8 94 0.4 SSW 6 7 3 4 1021.3 1020.8 22.8
19/05:30am 5.6 3.6 4.6 93 0.4 SSW 4 13 2 7 1020.7 1020.3 22.6
19/05:00am 6.2 4.0 5.3 94 0.4 W 6 15 3 8 1020.3 1019.8 21.2
19/04:30am 6.5 4.8 5.8 95 0.3 W 4 9 2 5 1019.5 1019.0 18.4
19/04:00am 6.0 3.5 5.0 93 0.4 SSW 7 17 4 9 1019.4 1018.9 18.2
19/03:30am 6.2 4.8 5.3 94 0.4 W 2 4 1 2 1019.0 1018.5 16.2
19/03:00am 6.2 4.0 5.3 94 0.4 W 6 13 3 7 1018.7 1018.3 16.2
19/02:30am 7.4 5.9 6.8 96 0.3 WNW 4 13 2 7 1018.5 1018.0 14.2
19/02:00am 7.4 5.6 7.0 97 0.2 W 6 17 3 9 1018.5 1018.0 14.2
19/01:30am 7.9 6.6 7.5 97 0.2 W 4 9 2 5 1018.4 1017.9 14.2
19/01:00am 7.8 6.4 7.4 97 0.2 W 4 7 2 4 1018.1 1017.6 14.2
19/12:30am 7.7 6.7 7.3 97 0.2 W 2 6 1 3 1017.9 1017.4 14.2
19/12:00am 7.7 6.3 7.3 97 0.2 NW 4 7 2 4 1017.6 1017.1 14.0
 
Date/Time
EST
Temp
°C
App
Temp
°C
Dew
Point
Rel
Hum
%
Delta-T
°C
Wind Press
QNH
hPa
Press
MSL
hPa
Rain
since 9 am
mm
Dir
 
Spd
km/h
Gust
km/h
Spd
kts
Gust
kts
18/11:30pm 7.5 6.1 7.1 97 0.2 NW 4 9 2 5 1017.6 1017.1 12.6
18/11:00pm 7.7 6.3 7.3 97 0.2 W 4 11 2 6 1017.6 1017.1 11.6
18/10:30pm 7.8 6.8 7.4 97 0.2 WNW 2 6 1 3 1017.6 1017.1 10.2
18/10:00pm 7.6 6.1 7.0 96 0.3 WSW 4 6 2 3 1017.3 1016.8 9.8
18/09:30pm 7.7 5.9 7.1 96 0.3 W 6 9 3 5 1016.6 1016.1 9.4
18/09:00pm 7.7 5.3 7.1 96 0.3 W 9 22 5 12 1016.6 1016.1 8.6
18/08:30pm 8.5 5.1 7.7 95 0.4 WSW 15 37 8 20 1016.1 1015.6 5.8
18/08:00pm 9.1 7.0 8.2 94 0.4 WSW 9 24 5 13 1015.7 1015.2 2.0
18/07:30pm 10.0 7.7 9.1 94 0.5 SW 11 26 6 14 1015.2 1014.6 0.0
18/07:00pm 11.7 10.6 10.6 93 0.6 WSW 7 17 4 9 1014.2 1013.7 0.0
18/06:30pm 12.4 11.1 10.1 86 1.2 W 7 24 4 13 1013.3 1012.7 0.0
18/06:00pm 12.5 12.9 11.1 91 0.8 CALM 0 0 0 0 1012.4 1011.9 0.0
18/05:30pm 13.1 13.0 10.8 86 1.2 NNW 2 4 1 2 1012.0 1011.5 0.0
18/05:00pm 13.8 14.2 11.3 85 1.4 CALM 0 0 0 0 1012.0 1011.5 0.0
18/04:30pm 14.5 13.6 10.7 78 2.1 NW 6 17 3 9 1011.8 1011.2 0.0
18/04:00pm 15.1 14.8 11.5 79 2.0 NW 4 13 2 7 1011.7 1011.1 0.0
18/03:30pm 14.8 14.4 11.2 79 2.0 NNW 4 9 2 5 1011.7 1011.1 0.0
18/03:00pm 14.2 13.8 11.2 82 1.6 NNW 4 9 2 5 1011.6 1011.0 0.0
18/02:30pm 13.9 13.8 12.1 89 1.0 NW 4 9 2 5 1012.0 1011.5 0.0
18/02:00pm 13.1 12.5 11.8 92 0.7 NNW 6 17 3 9 1012.2 1011.7 0.0
18/01:30pm 12.3 11.6 11.5 95 0.4 NW 6 17 3 9 1012.7 1012.1 0.0
18/01:00pm 11.7 11.7 11.1 96 0.3 NW 2 7 1 4 1012.8 1012.2 0.0

Other Formats:

Comma delimited format used in spreadsheet applications
http://www.bom.gov.au/fwo/IDV60801/IDV60801.94872.axf

JavaScript Object Notation format (JSON) in row-major order
http://www.bom.gov.au/fwo/IDV60801/IDV60801.94872.json